createdAt,value
2022-11-08T00:00:20.234Z,3.67
2022-11-08T00:02:47.866Z,3.37
2022-11-08T00:05:32.694Z,2.87
2022-11-08T00:08:21.148Z,3.10
2022-11-08T00:11:06.302Z,2.80
2022-11-08T00:13:52.461Z,2.80
2022-11-08T00:16:21.264Z,2.93
2022-11-08T00:18:48.723Z,2.67
2022-11-08T00:21:19.006Z,2.83
2022-11-08T00:23:46.531Z,3.00
2022-11-08T00:26:13.983Z,2.60
2022-11-08T00:28:41.573Z,2.53
2022-11-08T00:31:09.134Z,2.47
2022-11-08T00:33:38.182Z,2.53
2022-11-08T00:36:06.054Z,2.50
2022-11-08T00:38:33.498Z,2.43
2022-11-08T00:41:01.072Z,2.50
2022-11-08T00:43:28.517Z,2.90
2022-11-08T00:45:55.950Z,2.33
2022-11-08T00:48:23.410Z,2.57
2022-11-08T00:50:52.197Z,2.13
2022-11-08T00:53:19.723Z,2.33
2022-11-08T00:55:47.151Z,2.63
2022-11-08T00:58:14.877Z,2.90
2022-11-08T01:00:42.614Z,2.70
2022-11-08T01:03:21.935Z,2.33
2022-11-08T01:05:50.158Z,2.20
2022-11-08T01:08:20.045Z,3.17
2022-11-08T01:10:49.534Z,2.33
2022-11-08T01:13:17.405Z,2.27
2022-11-08T01:15:45.775Z,2.33
2022-11-08T01:18:14.079Z,2.73
2022-11-08T01:20:41.624Z,2.37
2022-11-08T01:23:09.977Z,2.20
2022-11-08T01:25:39.279Z,2.53
2022-11-08T01:28:07.009Z,2.20
2022-11-08T01:30:36.980Z,2.50
2022-11-08T01:33:04.744Z,2.63
2022-11-08T01:35:32.715Z,2.10
2022-11-08T01:38:00.121Z,2.37
2022-11-08T01:40:27.707Z,2.40
2022-11-08T01:42:56.941Z,2.50
2022-11-08T01:45:42.991Z,2.63
2022-11-08T01:48:10.466Z,2.47
2022-11-08T01:50:37.944Z,2.37
2022-11-08T01:53:05.346Z,2.17
2022-11-08T01:55:36.878Z,2.50
2022-11-08T01:58:09.182Z,2.73
2022-11-08T02:00:37.294Z,2.67
2022-11-08T02:03:06.270Z,2.07
2022-11-08T02:05:34.439Z,2.37
2022-11-08T02:08:03.322Z,2.20
2022-11-08T02:10:34.190Z,2.17
2022-11-08T02:13:05.008Z,2.10
2022-11-08T02:15:34.736Z,2.30
2022-11-08T02:18:02.431Z,2.10
2022-11-08T02:20:30.146Z,2.20
2022-11-08T02:23:00.185Z,2.50
2022-11-08T02:25:29.097Z,2.40
2022-11-08T02:27:56.552Z,2.40
2022-11-08T02:30:24.039Z,2.30
2022-11-08T02:32:51.623Z,1.90
2022-11-08T02:35:20.022Z,2.03
2022-11-08T02:37:47.879Z,2.03
2022-11-08T02:40:15.290Z,2.10
2022-11-08T02:42:44.080Z,2.07
2022-11-08T02:45:11.820Z,2.30
2022-11-08T02:47:39.290Z,1.87
2022-11-08T02:50:07.327Z,2.03
2022-11-08T02:52:34.782Z,2.73
2022-11-08T02:55:02.242Z,2.43
2022-11-08T02:57:29.659Z,2.83
2022-11-08T02:59:59.593Z,2.57
2022-11-08T03:02:27.219Z,2.37
2022-11-08T03:04:54.741Z,2.83
2022-11-08T03:07:25.019Z,2.00
2022-11-08T03:09:52.658Z,1.73
2022-11-08T03:12:20.800Z,2.07
2022-11-08T03:14:48.282Z,2.60
2022-11-08T03:17:17.165Z,2.63
2022-11-08T03:19:44.647Z,2.37
2022-11-08T03:22:12.079Z,2.10
2022-11-08T03:24:39.624Z,2.40
2022-11-08T03:27:07.129Z,2.40
2022-11-08T03:29:34.798Z,2.20
2022-11-08T03:32:02.330Z,2.63
2022-11-08T03:34:31.153Z,2.53
2022-11-08T03:36:58.627Z,2.60
2022-11-08T03:39:26.104Z,2.50
2022-11-08T03:41:53.492Z,3.03
2022-11-08T03:44:20.910Z,3.17
2022-11-08T03:46:48.308Z,3.13
2022-11-08T03:49:15.792Z,2.70
2022-11-08T03:51:44.681Z,2.53
2022-11-08T03:54:12.140Z,3.23
2022-11-08T03:56:39.604Z,2.53
2022-11-08T03:59:07.350Z,2.43
2022-11-08T04:01:34.841Z,2.40
2022-11-08T04:04:02.374Z,2.50
2022-11-08T04:06:29.831Z,2.50
2022-11-08T04:08:58.595Z,2.43
2022-11-08T04:11:43.501Z,2.67
2022-11-08T04:14:28.883Z,2.60
2022-11-08T04:16:56.355Z,2.37
2022-11-08T04:19:41.512Z,2.03
2022-11-08T04:22:09.357Z,2.43
2022-11-08T04:24:38.164Z,2.10
2022-11-08T04:27:05.642Z,2.60
2022-11-08T04:29:33.078Z,2.77
2022-11-08T04:32:00.588Z,2.70
2022-11-08T04:34:27.974Z,2.40
2022-11-08T04:36:55.510Z,2.67
2022-11-08T04:39:22.973Z,3.00
2022-11-08T04:41:51.803Z,3.07
2022-11-08T04:44:19.290Z,2.47
2022-11-08T04:46:46.706Z,2.57
2022-11-08T04:49:14.107Z,2.47
2022-11-08T04:51:41.537Z,2.53
2022-11-08T04:54:11.742Z,3.23
2022-11-08T04:56:39.256Z,2.47
2022-11-08T04:59:11.908Z,3.23
2022-11-08T05:01:39.926Z,2.70
2022-11-08T05:04:07.524Z,2.90
2022-11-08T05:06:34.936Z,2.90
2022-11-08T05:09:02.391Z,3.23
2022-11-08T05:11:30.277Z,3.43
2022-11-08T05:13:58.058Z,3.27
2022-11-08T05:16:27.693Z,3.50
2022-11-08T05:18:55.098Z,3.50
2022-11-08T05:21:40.570Z,3.40
2022-11-08T05:24:08.955Z,3.27
2022-11-08T05:26:37.212Z,2.90
2022-11-08T05:29:04.638Z,3.20
2022-11-08T05:31:33.388Z,3.43
2022-11-08T05:34:01.054Z,3.50
2022-11-08T05:36:28.602Z,4.03
2022-11-08T05:38:56.348Z,2.87
2022-11-08T05:41:24.743Z,3.83
2022-11-08T05:43:52.692Z,3.50
2022-11-08T05:46:20.765Z,3.13
2022-11-08T05:48:50.177Z,3.37
2022-11-08T05:51:19.167Z,4.00
2022-11-08T05:53:48.673Z,3.67
2022-11-08T05:56:16.689Z,3.57
2022-11-08T05:58:44.918Z,3.17
2022-11-08T06:01:13.425Z,3.73
2022-11-08T06:03:41.612Z,3.83
2022-11-08T06:06:11.852Z,4.47
2022-11-08T06:08:39.787Z,3.83
2022-11-08T06:11:08.263Z,3.93
2022-11-08T06:13:35.994Z,3.70
2022-11-08T06:16:04.905Z,3.60
2022-11-08T06:18:33.283Z,4.20
2022-11-08T06:21:01.231Z,3.90
2022-11-08T06:23:30.430Z,4.30
2022-11-08T06:25:58.206Z,4.40
2022-11-08T06:28:25.776Z,3.47
2022-11-08T06:30:53.233Z,4.10
2022-11-08T06:33:21.497Z,4.63
2022-11-08T06:35:49.234Z,3.93
2022-11-08T06:38:16.770Z,4.57
2022-11-08T06:40:45.960Z,3.70
2022-11-08T06:43:19.044Z,3.77
2022-11-08T06:45:46.990Z,4.60
2022-11-08T06:48:14.559Z,4.53
2022-11-08T06:50:42.744Z,3.93
2022-11-08T06:53:12.345Z,4.27
2022-11-08T06:55:39.866Z,4.47
2022-11-08T06:58:09.042Z,4.00
2022-11-08T07:00:36.512Z,4.20
2022-11-08T07:03:04.575Z,3.93
2022-11-08T07:05:32.846Z,4.77
2022-11-08T07:08:00.942Z,3.57
2022-11-08T07:10:29.153Z,4.03
2022-11-08T07:12:59.385Z,3.33
2022-11-08T07:15:28.372Z,3.47
2022-11-08T07:17:55.853Z,3.80
2022-11-08T07:20:23.434Z,3.70
2022-11-08T07:22:50.926Z,3.10
2022-11-08T07:25:18.985Z,3.57
2022-11-08T07:27:46.376Z,3.93
2022-11-08T07:30:16.742Z,4.00
2022-11-08T07:32:45.713Z,4.27
2022-11-08T07:35:13.297Z,4.20
2022-11-08T07:37:40.769Z,4.07
2022-11-08T07:40:11.176Z,4.47
2022-11-08T07:43:09.478Z,3.23
2022-11-08T07:45:26.612Z,3.50
2022-11-08T07:48:05.422Z,3.50
2022-11-08T07:50:37.230Z,3.40
2022-11-08T07:53:04.733Z,2.90
2022-11-08T07:55:32.372Z,3.63
2022-11-08T07:58:01.334Z,3.33
2022-11-08T08:00:28.880Z,2.43
2022-11-08T08:02:58.360Z,2.83
2022-11-08T08:05:27.696Z,2.47
2022-11-08T08:07:57.060Z,2.53
2022-11-08T08:10:24.763Z,2.40
2022-11-08T08:12:52.240Z,2.60
2022-11-08T08:15:19.745Z,2.03
2022-11-08T08:17:47.196Z,2.40
2022-11-08T08:20:15.128Z,1.97
2022-11-08T08:22:47.052Z,1.77
2022-11-08T08:25:14.547Z,1.77
2022-11-08T08:27:42.000Z,1.50
2022-11-08T08:30:09.831Z,1.77
2022-11-08T08:32:37.300Z,1.43
2022-11-08T08:35:05.338Z,1.83
2022-11-08T08:37:32.815Z,1.90
2022-11-08T08:40:01.635Z,1.60
2022-11-08T08:42:29.059Z,1.40
2022-11-08T08:44:56.521Z,1.60
2022-11-08T08:47:24.024Z,1.23
2022-11-08T08:49:51.561Z,1.53
2022-11-08T08:52:19.388Z,1.53
2022-11-08T08:54:47.051Z,1.43
2022-11-08T08:57:16.062Z,1.60
2022-11-08T09:02:31.029Z,1.40
2022-11-08T09:04:59.123Z,1.27
2022-11-08T09:07:26.584Z,1.10
2022-11-08T09:09:54.009Z,1.10
2022-11-08T09:12:23.008Z,1.10
2022-11-08T09:14:50.449Z,1.07
2022-11-08T09:17:17.888Z,1.20
2022-11-08T09:19:46.355Z,1.30
2022-11-08T09:22:14.008Z,1.30
2022-11-08T09:24:41.559Z,1.20
2022-11-08T09:27:09.033Z,1.20
2022-11-08T09:29:37.943Z,1.20
2022-11-08T09:32:05.465Z,1.40
2022-11-08T09:34:33.160Z,1.37
2022-11-08T09:37:00.767Z,1.43
2022-11-08T09:39:28.353Z,1.40
2022-11-08T09:42:04.206Z,1.00
2022-11-08T09:44:45.892Z,1.10
2022-11-08T09:47:16.273Z,1.13
2022-11-08T09:49:46.668Z,0.83
2022-11-08T09:52:17.623Z,1.03
2022-11-08T09:54:46.690Z,0.90
2022-11-08T09:57:17.197Z,0.90
2022-11-08T09:59:47.467Z,0.90
2022-11-08T10:02:17.320Z,1.00
2022-11-08T10:04:47.256Z,0.80
2022-11-08T10:07:20.264Z,0.90
2022-11-08T10:10:05.373Z,0.90
2022-11-08T10:12:38.606Z,0.80
2022-11-08T10:15:15.831Z,0.80
2022-11-08T10:17:53.388Z,1.00
2022-11-08T10:20:25.286Z,0.90
2022-11-08T10:22:55.699Z,0.80
2022-11-08T10:25:25.451Z,0.90
2022-11-08T10:27:54.174Z,0.90
2022-11-08T10:30:24.504Z,0.87
2022-11-08T10:32:54.076Z,0.80
2022-11-08T10:35:26.367Z,0.70
2022-11-08T10:37:56.062Z,0.90
2022-11-08T10:40:28.607Z,0.80
2022-11-08T10:42:59.254Z,0.80
2022-11-08T10:45:28.225Z,0.80
2022-11-08T10:47:56.044Z,0.90
2022-11-08T10:50:38.177Z,0.90
2022-11-08T10:53:07.047Z,0.80
2022-11-08T10:55:38.408Z,0.80
2022-11-08T10:58:07.444Z,0.70
2022-11-08T11:00:36.771Z,0.83
2022-11-08T11:03:23.276Z,0.90
2022-11-08T11:05:58.773Z,0.80
2022-11-08T11:08:26.987Z,0.70
2022-11-08T11:10:54.951Z,0.90
2022-11-08T11:13:23.762Z,0.83
2022-11-08T11:15:59.903Z,0.70
2022-11-08T11:18:29.694Z,0.90
2022-11-08T11:20:58.868Z,0.70
2022-11-08T11:23:33.426Z,0.70
2022-11-08T11:26:00.997Z,0.70
2022-11-08T11:28:28.536Z,0.70
2022-11-08T11:31:02.122Z,0.70
2022-11-08T11:33:30.695Z,0.70
2022-11-08T11:35:59.070Z,0.70
2022-11-08T11:38:31.813Z,0.80
2022-11-08T11:41:03.720Z,0.60
2022-11-08T11:43:39.012Z,0.75
2022-11-08T11:46:10.820Z,0.60
2022-11-08T11:48:40.950Z,0.80
2022-11-08T11:51:09.837Z,0.70
2022-11-08T11:53:39.331Z,0.70
2022-11-08T11:56:25.337Z,0.60
2022-11-08T11:58:59.525Z,0.90
2022-11-08T12:01:32.454Z,0.68
2022-11-08T12:04:10.530Z,0.60
2022-11-08T12:06:46.637Z,0.80
2022-11-08T12:09:20.321Z,0.60
2022-11-08T12:11:53.589Z,0.65
2022-11-08T12:14:40.418Z,0.93
2022-11-08T12:17:17.704Z,1.10
2022-11-08T12:19:50.479Z,1.00
2022-11-08T12:22:43.300Z,0.82
2022-11-08T12:25:13.163Z,0.90
2022-11-08T12:27:45.091Z,0.70
2022-11-08T12:30:15.578Z,0.65
2022-11-08T12:32:58.088Z,0.57
2022-11-08T12:35:32.485Z,0.90
2022-11-08T12:38:16.937Z,0.80
2022-11-08T12:40:49.612Z,0.82
2022-11-08T12:43:21.502Z,0.63
2022-11-08T12:45:55.968Z,0.73
2022-11-08T12:48:35.103Z,0.70
2022-11-08T12:51:07.662Z,0.60
2022-11-08T12:53:44.672Z,0.70
2022-11-08T12:56:14.088Z,0.80
2022-11-08T12:58:43.979Z,0.80
2022-11-08T13:01:13.076Z,0.80
2022-11-08T13:04:05.787Z,1.23
2022-11-08T13:06:39.481Z,0.87
2022-11-08T13:09:11.619Z,0.90
2022-11-08T13:11:42.927Z,1.10
2022-11-08T13:14:13.596Z,0.70
2022-11-08T13:16:43.862Z,0.83
2022-11-08T13:19:26.239Z,0.80
2022-11-08T13:21:55.503Z,0.60
2022-11-08T13:24:49.823Z,0.80
2022-11-08T13:27:35.186Z,0.80
2022-11-08T13:30:29.016Z,0.70
2022-11-08T13:33:00.042Z,0.90
2022-11-08T13:35:31.717Z,0.87
2022-11-08T13:38:08.752Z,0.97
2022-11-08T13:40:43.495Z,1.97
2022-11-08T13:43:34.959Z,0.80
2022-11-08T13:46:17.416Z,0.90
2022-11-08T13:49:04.937Z,0.90
2022-11-08T13:51:32.820Z,0.90
2022-11-08T13:54:02.773Z,1.00
2022-11-08T13:56:45.237Z,0.80
2022-11-08T13:59:27.642Z,0.80
2022-11-08T14:01:59.386Z,0.90
2022-11-08T14:04:28.140Z,1.00
2022-11-08T14:07:00.264Z,1.17
2022-11-08T14:09:33.614Z,0.87
2022-11-08T14:12:03.837Z,1.07
2022-11-08T14:14:45.537Z,1.20
2022-11-08T14:17:37.056Z,1.00
2022-11-08T14:20:19.515Z,1.40
2022-11-08T14:22:50.208Z,1.10
2022-11-08T14:25:24.260Z,0.97
2022-11-08T14:27:51.752Z,0.80
2022-11-08T14:30:20.501Z,0.70
2022-11-08T14:32:48.311Z,0.70
2022-11-08T14:35:21.440Z,0.87
2022-11-08T14:37:49.335Z,0.70
2022-11-08T14:40:22.411Z,0.90
2022-11-08T14:42:50.946Z,0.90
2022-11-08T14:45:24.614Z,1.00
2022-11-08T14:47:53.978Z,0.87
2022-11-08T14:50:22.388Z,0.90
2022-11-08T14:52:50.132Z,0.90
2022-11-08T14:55:23.208Z,0.90
2022-11-08T14:57:52.179Z,0.80
2022-11-08T15:00:20.634Z,0.80
2022-11-08T15:02:49.772Z,0.90
2022-11-08T15:05:30.359Z,1.10
2022-11-08T15:07:58.244Z,0.90
2022-11-08T15:10:25.865Z,0.80
2022-11-08T15:12:55.067Z,0.90
2022-11-08T15:15:24.823Z,0.90
2022-11-08T15:18:06.392Z,0.80
2022-11-08T15:20:33.950Z,1.10
2022-11-08T15:23:01.477Z,0.93
2022-11-08T15:25:30.431Z,0.97
2022-11-08T15:27:59.913Z,1.10
2022-11-08T15:30:37.949Z,1.30
2022-11-08T15:33:05.707Z,1.00
2022-11-08T15:35:34.505Z,1.20
2022-11-08T15:38:03.126Z,1.50
2022-11-08T15:40:32.005Z,1.40
2022-11-08T15:43:01.623Z,1.40
2022-11-08T15:45:32.190Z,1.20
2022-11-08T15:48:11.669Z,1.10
2022-11-08T15:50:39.318Z,1.10
2022-11-08T15:53:07.286Z,1.07
2022-11-08T15:55:37.342Z,1.60
2022-11-08T15:58:06.630Z,1.40
2022-11-08T16:00:36.417Z,1.50
2022-11-08T16:03:04.178Z,1.67
2022-11-08T16:05:32.942Z,1.30
2022-11-08T16:08:00.873Z,1.43
2022-11-08T16:10:30.298Z,1.23
2022-11-08T16:12:59.640Z,1.47
2022-11-08T16:15:29.556Z,2.00
2022-11-08T16:17:57.109Z,1.30
2022-11-08T16:20:27.698Z,1.43
2022-11-08T16:22:55.684Z,1.70
2022-11-08T16:25:23.824Z,1.33
2022-11-08T16:27:53.709Z,1.67
2022-11-08T16:30:21.864Z,1.90
2022-11-08T16:32:50.839Z,1.47
2022-11-08T16:35:18.644Z,1.60
2022-11-08T16:37:46.710Z,2.07
2022-11-08T16:40:16.583Z,1.53
2022-11-08T16:42:44.240Z,1.90
2022-11-08T16:45:12.334Z,1.87
2022-11-08T16:47:40.070Z,1.70
2022-11-08T16:50:14.776Z,2.20
2022-11-08T16:52:42.254Z,2.10
2022-11-08T16:55:16.560Z,2.00
2022-11-08T16:57:45.294Z,2.07
2022-11-08T17:00:13.593Z,2.57
2022-11-08T17:02:42.805Z,2.13
2022-11-08T17:05:15.568Z,2.57
2022-11-08T17:07:42.993Z,2.10
2022-11-08T17:10:17.086Z,2.47
2022-11-08T17:12:44.875Z,1.80
2022-11-08T17:15:13.673Z,2.30
2022-11-08T17:17:41.821Z,2.47
2022-11-08T17:20:10.540Z,2.20
2022-11-08T17:22:39.746Z,2.33
2022-11-08T17:25:07.834Z,2.17
2022-11-08T17:27:35.289Z,1.77
2022-11-08T17:30:02.774Z,1.80
2022-11-08T17:32:30.255Z,1.83
2022-11-08T17:34:58.257Z,2.03
2022-11-08T17:37:25.698Z,2.00
2022-11-08T17:39:55.380Z,1.73
2022-11-08T17:42:23.267Z,1.87
2022-11-08T17:44:50.814Z,2.00
2022-11-08T17:47:18.395Z,2.03
2022-11-08T17:49:45.854Z,2.03
2022-11-08T17:52:13.323Z,1.97
2022-11-08T17:54:41.486Z,1.33
2022-11-08T17:57:10.570Z,1.90
2022-11-08T17:59:38.160Z,1.73
2022-11-08T18:02:05.705Z,2.10
2022-11-08T18:04:33.196Z,2.07
2022-11-08T18:07:00.837Z,1.87
2022-11-08T18:09:28.367Z,1.80
2022-11-08T18:11:57.497Z,1.80
2022-11-08T18:14:29.515Z,2.20
2022-11-08T18:16:57.216Z,1.97
2022-11-08T18:19:25.500Z,2.20
2022-11-08T18:21:53.176Z,2.40
2022-11-08T18:24:21.350Z,2.37
2022-11-08T18:26:48.894Z,3.20
2022-11-08T18:29:16.760Z,2.70
2022-11-08T18:31:45.620Z,2.77
2022-11-08T18:34:13.089Z,2.83
2022-11-08T18:36:40.556Z,2.50
2022-11-08T18:39:08.114Z,2.33
2022-11-08T18:41:36.130Z,2.70
2022-11-08T18:44:05.890Z,2.57
2022-11-08T18:46:40.255Z,2.60
2022-11-08T18:49:10.975Z,2.43
2022-11-08T18:51:38.754Z,2.30
2022-11-08T18:54:06.644Z,2.90
2022-11-08T18:56:34.572Z,2.50
2022-11-08T18:59:02.141Z,2.23
2022-11-08T19:01:29.843Z,2.23
2022-11-08T19:03:57.375Z,2.47
2022-11-08T19:06:26.822Z,2.30
2022-11-08T19:08:55.626Z,2.63
2022-11-08T19:11:23.174Z,3.10
2022-11-08T19:13:50.750Z,2.43
2022-11-08T19:16:19.084Z,2.53
2022-11-08T19:18:48.935Z,3.17
2022-11-08T19:21:17.513Z,3.47
2022-11-08T19:23:47.508Z,3.20
2022-11-08T19:26:15.889Z,2.60
2022-11-08T19:28:45.475Z,2.90
2022-11-08T19:31:13.400Z,2.77
2022-11-08T19:33:41.003Z,3.10
2022-11-08T19:36:09.482Z,2.80
2022-11-08T19:38:37.601Z,3.00
2022-11-08T19:41:08.309Z,2.80
2022-11-08T19:43:36.321Z,2.33
2022-11-08T19:46:05.038Z,2.43
2022-11-08T19:48:33.394Z,3.37
2022-11-08T19:51:01.987Z,3.17
2022-11-08T19:53:29.607Z,2.87
2022-11-08T19:56:01.183Z,3.03
2022-11-08T19:58:30.128Z,2.73
2022-11-08T20:00:57.576Z,3.17
2022-11-08T20:03:25.061Z,3.07
2022-11-08T20:05:53.047Z,2.93
2022-11-08T20:08:20.972Z,2.70
2022-11-08T20:10:49.830Z,2.90
2022-11-08T20:13:17.397Z,2.93
2022-11-08T20:15:46.283Z,2.90
2022-11-08T20:18:14.030Z,2.60
2022-11-08T20:20:42.033Z,2.63
2022-11-08T20:23:16.002Z,2.33
2022-11-08T20:25:43.844Z,2.70
2022-11-08T20:28:11.484Z,3.30
2022-11-08T20:30:41.447Z,2.93
2022-11-08T20:33:10.670Z,3.10
2022-11-08T20:35:38.680Z,2.90
2022-11-08T20:38:06.183Z,3.03
2022-11-08T20:40:33.674Z,3.00
2022-11-08T20:43:01.179Z,2.90
2022-11-08T20:45:28.697Z,2.47
2022-11-08T20:47:56.146Z,2.70
2022-11-08T20:50:25.002Z,2.87
2022-11-08T20:52:52.464Z,2.90
2022-11-08T20:55:19.944Z,2.50
2022-11-08T20:57:47.592Z,2.33
2022-11-08T21:00:23.991Z,2.43
2022-11-08T21:03:00.506Z,2.10
2022-11-08T21:05:29.364Z,2.67
2022-11-08T21:08:56.772Z,2.37
2022-11-08T21:10:47.600Z,2.07
2022-11-08T21:13:15.361Z,2.27
2022-11-08T21:15:44.972Z,2.73
2022-11-08T21:18:12.461Z,2.63
2022-11-08T21:20:41.947Z,2.20
2022-11-08T21:23:09.460Z,2.40
2022-11-08T21:25:38.045Z,2.50
2022-11-08T21:28:06.998Z,2.20
2022-11-08T21:30:35.605Z,2.27
2022-11-08T21:33:03.155Z,2.50
2022-11-08T21:35:30.757Z,2.43
2022-11-08T21:37:59.764Z,2.27
2022-11-08T21:40:27.283Z,2.47
2022-11-08T21:42:54.911Z,2.10
2022-11-08T21:45:22.454Z,2.40
2022-11-08T21:47:50.560Z,2.80
2022-11-08T21:50:18.519Z,1.83
2022-11-08T21:52:46.312Z,1.90
2022-11-08T21:55:16.205Z,2.13
2022-11-08T21:57:48.469Z,2.33
2022-11-08T22:00:16.545Z,2.30
2022-11-08T22:02:44.223Z,2.23
2022-11-08T22:05:12.867Z,2.07
2022-11-08T22:07:44.431Z,2.17
2022-11-08T22:10:12.599Z,2.33
2022-11-08T22:12:42.154Z,2.23
2022-11-08T22:15:10.538Z,2.17
2022-11-08T22:17:42.923Z,2.03
2022-11-08T22:20:17.965Z,2.43
2022-11-08T22:22:45.529Z,1.90
2022-11-08T22:25:13.183Z,2.03
2022-11-08T22:27:42.074Z,2.27
2022-11-08T22:30:15.468Z,1.90
2022-11-08T22:32:46.819Z,2.07
2022-11-08T22:35:14.397Z,1.50
2022-11-08T22:37:42.127Z,1.87
2022-11-08T22:40:10.579Z,1.97
2022-11-08T22:42:38.082Z,1.97
2022-11-08T22:45:07.571Z,2.10
2022-11-08T22:47:35.072Z,1.90
2022-11-08T22:50:02.528Z,1.80
2022-11-08T22:52:30.078Z,2.30
2022-11-08T22:54:57.580Z,2.17
2022-11-08T22:57:25.090Z,2.10
2022-11-08T22:59:52.632Z,1.67
2022-11-08T23:02:21.530Z,1.80
2022-11-08T23:04:49.078Z,2.50
2022-11-08T23:07:16.683Z,1.97
2022-11-08T23:09:44.223Z,1.77
2022-11-08T23:12:31.543Z,1.80
2022-11-08T23:15:16.273Z,1.80
2022-11-08T23:17:45.160Z,2.00
2022-11-08T23:20:30.383Z,2.20
2022-11-08T23:23:15.364Z,1.80
2022-11-08T23:25:43.011Z,2.00
2022-11-08T23:28:27.882Z,2.00
2022-11-08T23:31:12.613Z,2.13
2022-11-08T23:33:44.887Z,1.70
2022-11-08T23:36:12.307Z,1.97
2022-11-08T23:38:39.959Z,2.10
2022-11-08T23:41:24.562Z,1.90
2022-11-08T23:44:09.321Z,2.00
2022-11-08T23:46:36.764Z,2.03
2022-11-08T23:49:05.730Z,1.60
2022-11-08T23:51:33.244Z,2.00
2022-11-08T23:54:00.685Z,1.80
2022-11-08T23:56:28.709Z,2.40
2022-11-08T23:58:57.028Z,1.90
